createdAt,value
2022-12-29T00:00:00.781Z,180.4
2022-12-29T00:05:00.729Z,178.0
2022-12-29T00:10:00.813Z,176.3
2022-12-29T00:15:00.855Z,183.7
2022-12-29T00:20:00.752Z,174.2
2022-12-29T00:25:00.736Z,183.0
2022-12-29T00:30:00.895Z,183.2
2022-12-29T00:35:00.779Z,185.4
2022-12-29T00:40:00.894Z,178.9
2022-12-29T00:45:00.794Z,195.3
2022-12-29T00:50:00.794Z,189.4
2022-12-29T00:55:00.779Z,188.7
2022-12-29T01:00:02.385Z,185.2
2022-12-29T01:05:02.080Z,186.4
2022-12-29T01:10:00.799Z,181.8
2022-12-29T01:15:00.814Z,185.0
2022-12-29T01:20:00.912Z,183.8
2022-12-29T01:25:00.807Z,188.4
2022-12-29T01:30:00.813Z,189.2
2022-12-29T01:35:00.760Z,177.1
2022-12-29T01:40:00.810Z,186.4
2022-12-29T01:45:00.754Z,187.9
2022-12-29T01:50:00.790Z,184.5
2022-12-29T01:55:00.806Z,183.4
2022-12-29T02:00:00.833Z,186.7
2022-12-29T02:05:05.259Z,182.5
2022-12-29T02:10:00.797Z,171.8
2022-12-29T02:15:00.776Z,181.6
2022-12-29T02:20:00.822Z,181.7
2022-12-29T02:25:00.869Z,190.0
2022-12-29T02:30:00.810Z,185.4
2022-12-29T02:35:00.793Z,192.1
2022-12-29T02:40:00.800Z,189.6
2022-12-29T02:45:00.738Z,189.2
2022-12-29T02:50:00.771Z,192.2
2022-12-29T02:55:00.719Z,181.2
2022-12-29T03:00:00.747Z,184.0
2022-12-29T03:05:00.794Z,180.7
2022-12-29T03:10:00.768Z,186.9
2022-12-29T03:15:01.176Z,188.6
2022-12-29T03:20:01.008Z,187.8
2022-12-29T03:25:00.808Z,188.4
2022-12-29T03:30:00.884Z,184.5
2022-12-29T03:35:00.791Z,189.5
2022-12-29T03:40:00.776Z,197.7
2022-12-29T03:45:00.745Z,195.3
2022-12-29T03:50:00.864Z,184.9
2022-12-29T03:55:00.775Z,185.0
2022-12-29T04:00:07.958Z,185.8
2022-12-29T04:05:00.879Z,188.4
2022-12-29T04:10:00.918Z,184.5
2022-12-29T04:15:00.796Z,191.2
2022-12-29T04:20:00.754Z,184.4
2022-12-29T04:25:00.820Z,178.0
2022-12-29T04:30:00.766Z,180.9
2022-12-29T04:35:00.744Z,183.0
2022-12-29T04:40:00.765Z,178.3
2022-12-29T04:45:00.781Z,191.4
2022-12-29T04:50:00.749Z,193.1
2022-12-29T04:55:00.761Z,188.1
2022-12-29T05:00:00.887Z,186.0
2022-12-29T05:05:00.784Z,192.9
2022-12-29T05:10:00.790Z,187.5
2022-12-29T05:15:00.728Z,180.8
2022-12-29T05:20:00.767Z,194.4
2022-12-29T05:25:00.817Z,183.8
2022-12-29T05:30:00.809Z,188.3
2022-12-29T05:35:00.795Z,190.9
2022-12-29T05:40:00.783Z,191.1
2022-12-29T05:45:00.868Z,187.9
2022-12-29T05:50:00.714Z,191.8
2022-12-29T05:55:00.790Z,190.4
2022-12-29T06:00:00.751Z,183.1
2022-12-29T06:05:01.288Z,190.3
2022-12-29T06:10:00.738Z,175.2
2022-12-29T06:15:00.780Z,188.6
2022-12-29T06:20:00.892Z,191.7
2022-12-29T06:25:05.817Z,194.0
2022-12-29T06:30:01.253Z,188.7
2022-12-29T06:35:00.791Z,181.7
2022-12-29T06:40:00.780Z,186.7
2022-12-29T06:45:00.894Z,183.6
2022-12-29T06:50:00.734Z,184.8
2022-12-29T06:55:00.760Z,185.6
2022-12-29T07:00:00.789Z,200.1
2022-12-29T07:05:00.755Z,192.0
2022-12-29T07:10:00.846Z,188.5
2022-12-29T07:15:00.747Z,187.0
2022-12-29T07:20:00.734Z,181.8
2022-12-29T07:25:00.754Z,188.7
2022-12-29T07:30:00.805Z,192.1
2022-12-29T07:35:00.770Z,196.1
2022-12-29T07:40:00.799Z,191.7
2022-12-29T07:45:00.756Z,187.7
2022-12-29T07:50:00.759Z,184.4
2022-12-29T07:55:00.811Z,175.1
2022-12-29T08:00:00.780Z,187.7
2022-12-29T08:05:00.736Z,181.3
2022-12-29T08:10:00.798Z,185.7
2022-12-29T08:15:00.773Z,192.6
2022-12-29T08:20:00.802Z,192.1
2022-12-29T08:25:00.779Z,197.5
2022-12-29T08:30:00.812Z,193.3
2022-12-29T08:35:00.786Z,181.7
2022-12-29T08:40:00.780Z,182.3
2022-12-29T08:45:00.842Z,178.3
2022-12-29T08:50:00.812Z,189.8
2022-12-29T08:55:00.781Z,180.7
2022-12-29T09:00:00.814Z,188.2
2022-12-29T09:05:01.183Z,176.7
2022-12-29T09:10:00.786Z,184.8
2022-12-29T09:15:00.751Z,179.7
2022-12-29T09:20:00.796Z,185.4
2022-12-29T09:25:00.783Z,193.5
2022-12-29T09:30:00.840Z,177.3
2022-12-29T09:35:00.753Z,188.9
2022-12-29T09:40:00.794Z,180.5
2022-12-29T09:45:00.813Z,181.9
2022-12-29T09:50:01.151Z,198.4
2022-12-29T09:55:14.526Z,188.5
2022-12-29T10:00:00.868Z,198.1
2022-12-29T10:05:00.764Z,195.4
2022-12-29T10:10:00.805Z,194.9
2022-12-29T10:15:00.865Z,191.6
2022-12-29T10:20:00.800Z,200.1
2022-12-29T10:25:00.775Z,195.2
2022-12-29T10:30:00.789Z,188.5
2022-12-29T10:35:00.738Z,188.6
2022-12-29T10:40:00.775Z,194.4
2022-12-29T10:45:00.771Z,196.5
2022-12-29T10:50:00.992Z,183.5
2022-12-29T10:55:00.877Z,193.4
2022-12-29T11:00:00.817Z,190.2
2022-12-29T11:05:00.779Z,202.3
2022-12-29T11:10:00.801Z,210.1
2022-12-29T11:15:00.879Z,190.6
2022-12-29T11:20:00.853Z,188.0
2022-12-29T11:25:00.767Z,190.5
2022-12-29T11:30:00.803Z,190.5
2022-12-29T11:35:00.805Z,193.6
2022-12-29T11:40:00.837Z,188.0
2022-12-29T11:45:04.058Z,189.9
2022-12-29T11:50:00.837Z,198.3
2022-12-29T11:55:00.788Z,193.5
2022-12-29T12:00:00.797Z,194.4
2022-12-29T12:05:00.794Z,197.5
2022-12-29T12:10:08.588Z,205.3
2022-12-29T12:15:00.922Z,193.9
2022-12-29T12:20:00.801Z,187.5
2022-12-29T12:25:00.763Z,200.4
2022-12-29T12:30:00.830Z,190.0
2022-12-29T12:35:00.773Z,193.6
2022-12-29T12:40:00.784Z,198.2
2022-12-29T12:45:00.807Z,193.3
2022-12-29T12:50:01.081Z,193.0
2022-12-29T12:55:00.784Z,193.5
2022-12-29T13:00:00.927Z,189.7
2022-12-29T13:05:00.746Z,201.8
2022-12-29T13:10:00.795Z,184.3
2022-12-29T13:15:00.793Z,203.3
2022-12-29T13:20:00.796Z,195.9
2022-12-29T13:25:00.774Z,198.0
2022-12-29T13:30:00.938Z,201.7
2022-12-29T13:35:00.768Z,195.6
2022-12-29T13:40:00.874Z,200.0
2022-12-29T13:45:00.748Z,195.0
2022-12-29T13:50:01.202Z,201.2
2022-12-29T13:55:00.796Z,198.9
2022-12-29T14:00:00.927Z,186.1
2022-12-29T14:05:00.816Z,193.5
2022-12-29T14:10:00.925Z,189.5
2022-12-29T14:15:00.808Z,191.4
2022-12-29T14:20:00.801Z,198.5
2022-12-29T14:25:00.784Z,201.4
2022-12-29T14:30:00.826Z,199.0
2022-12-29T14:35:00.819Z,197.4
2022-12-29T14:40:00.827Z,198.6
2022-12-29T14:45:00.757Z,203.4
2022-12-29T14:50:00.785Z,200.6
2022-12-29T14:55:00.819Z,211.0
2022-12-29T15:00:00.754Z,201.8
2022-12-29T15:05:00.755Z,199.1
2022-12-29T15:10:00.812Z,193.9
2022-12-29T15:15:00.831Z,210.7
2022-12-29T15:20:00.816Z,195.0
2022-12-29T15:25:00.753Z,205.7
2022-12-29T15:30:00.777Z,205.7
2022-12-29T15:35:00.743Z,199.7
2022-12-29T15:40:00.795Z,204.5
2022-12-29T15:45:11.993Z,198.8
2022-12-29T15:50:00.754Z,194.1
2022-12-29T15:55:00.753Z,197.0
2022-12-29T16:00:00.773Z,210.9
2022-12-29T16:05:18.879Z,206.9
2022-12-29T16:10:00.863Z,205.7
2022-12-29T16:15:00.844Z,192.6
2022-12-29T16:20:01.040Z,202.5
2022-12-29T16:25:05.564Z,201.3
2022-12-29T16:30:00.882Z,191.3
2022-12-29T16:35:00.796Z,199.1
2022-12-29T16:40:01.096Z,189.3
2022-12-29T16:45:00.841Z,188.4
2022-12-29T16:50:01.016Z,188.4
2022-12-29T16:55:00.798Z,197.5
2022-12-29T17:00:01.055Z,188.0
2022-12-29T17:05:00.799Z,191.5
2022-12-29T17:10:01.200Z,198.9
2022-12-29T17:15:00.765Z,193.1
2022-12-29T17:20:00.826Z,190.3
2022-12-29T17:25:00.853Z,194.3
2022-12-29T17:30:00.794Z,190.3
2022-12-29T17:35:00.798Z,195.2
2022-12-29T17:40:00.799Z,196.1
2022-12-29T17:45:00.767Z,196.4
2022-12-29T17:50:00.809Z,206.1
2022-12-29T17:55:00.745Z,204.0
2022-12-29T18:00:00.842Z,202.5
2022-12-29T18:05:00.819Z,191.6
2022-12-29T18:10:00.778Z,203.5
2022-12-29T18:15:00.798Z,210.3
2022-12-29T18:20:00.799Z,198.2
2022-12-29T18:25:00.796Z,197.7
2022-12-29T18:30:00.844Z,198.5
2022-12-29T18:35:00.777Z,201.8
2022-12-29T18:40:00.804Z,193.3
2022-12-29T18:45:00.774Z,202.0
2022-12-29T18:50:00.803Z,200.3
2022-12-29T18:55:00.746Z,194.5
2022-12-29T19:00:00.775Z,201.4
2022-12-29T19:05:08.991Z,198.9
2022-12-29T19:10:00.745Z,198.2
2022-12-29T19:15:00.772Z,200.3
2022-12-29T19:20:00.771Z,198.5
2022-12-29T19:25:00.821Z,197.0
2022-12-29T19:30:00.800Z,193.6
2022-12-29T19:35:00.806Z,181.5
2022-12-29T19:40:00.814Z,194.4
2022-12-29T19:45:00.753Z,186.5
2022-12-29T19:50:00.801Z,195.9
2022-12-29T19:55:00.792Z,197.8
2022-12-29T20:00:00.852Z,188.8
2022-12-29T20:05:00.759Z,191.9
2022-12-29T20:10:00.793Z,200.9
2022-12-29T20:15:00.776Z,192.3
2022-12-29T20:20:00.763Z,198.2
2022-12-29T20:25:45.888Z,193.6
2022-12-29T20:30:00.819Z,194.6
2022-12-29T20:35:00.756Z,197.0
2022-12-29T20:40:00.953Z,191.4
2022-12-29T20:45:00.797Z,188.4
2022-12-29T20:50:00.788Z,193.0
2022-12-29T20:55:00.784Z,187.9
2022-12-29T21:00:00.770Z,183.5
2022-12-29T21:05:25.578Z,181.7
2022-12-29T21:10:00.823Z,173.2
2022-12-29T21:15:00.743Z,186.2
2022-12-29T21:20:00.809Z,180.3
2022-12-29T21:25:00.839Z,197.0
2022-12-29T21:30:00.770Z,191.3
2022-12-29T21:35:00.806Z,192.2
2022-12-29T21:40:00.793Z,183.7
2022-12-29T21:45:00.759Z,192.6
2022-12-29T21:50:00.783Z,190.2
2022-12-29T21:55:00.838Z,186.5
2022-12-29T22:00:00.773Z,189.7
2022-12-29T22:05:00.825Z,197.1
2022-12-29T22:10:00.725Z,190.3
2022-12-29T22:15:00.819Z,194.1
2022-12-29T22:20:00.763Z,192.8
2022-12-29T22:25:00.787Z,193.4
2022-12-29T22:30:00.797Z,189.7
2022-12-29T22:35:08.797Z,201.7
2022-12-29T22:40:00.788Z,204.4
2022-12-29T22:45:00.839Z,204.3
2022-12-29T22:50:00.814Z,204.6
2022-12-29T22:55:09.673Z,208.5
2022-12-29T23:00:00.831Z,211.0
2022-12-29T23:05:06.258Z,205.1
2022-12-29T23:10:00.834Z,204.1
2022-12-29T23:15:00.807Z,201.1
2022-12-29T23:20:00.795Z,213.3
2022-12-29T23:25:00.775Z,218.3
2022-12-29T23:30:00.812Z,206.2
2022-12-29T23:35:00.748Z,209.7
2022-12-29T23:40:00.786Z,200.4
2022-12-29T23:45:00.795Z,215.2
2022-12-29T23:50:01.017Z,209.3
2022-12-29T23:55:00.731Z,194.8
